• Coppia_Tornado_camo
  • linea_volo_F104G
  • cockpit_view
  • Tornado_grey
  • F84F_decollo
  • F84F_Garda
  • Benvenuti al 154° Gruppo Virtuale


    Simulazione, Storia e Passione


  • Benvenuti al 154° Gruppo Virtuale


    Simulazione, Storia e Passione


  • Benvenuti al 154° Gruppo Virtuale


    Simulazione, Storia e Passione


  • Benvenuti al 154° Gruppo Virtuale


    Simulazione, Storia e Passione


  • Benvenuti al 154° Gruppo Virtuale


    Simulazione, Storia e Passione


  • Benvenuti al 154° Gruppo Virtuale


    Simulazione, Storia e Passione


Contacts

  • Jane Q. Public Chief Information Officer
    Cupertino, California, USA
    Phone: 1-212-555555-1

METAR & TAF

[Source: ADDS]
METAR
LIPL 060955Z 24004KT CAVOK 26/14 Q1016 RMK SKC VIS MIN 9999 WIND THR31 27004KT WIND THR13 22004KT BLU =
LIPL 060800Z 0609/0618 VRB03KT CAVOK
TAF
LIPL 060800Z 0609/0618 VRB03KT CAVOK =

Notice: Undefined index: sun in /web/htdocs/www.154gruppovirtuale.it/home/modules/mod_wx/tmpl/default.php on line 13

Simulation Platform